createdAt,value
2019-05-25T00:04:41.073Z,3.40
2019-05-25T00:09:48.512Z,3.90
2019-05-25T00:14:53.942Z,3.80
2019-05-25T00:19:58.387Z,3.53
2019-05-25T00:25:02.930Z,3.23
2019-05-25T00:30:07.772Z,3.33
2019-05-25T00:35:12.747Z,3.03
2019-05-25T00:40:17.254Z,3.43
2019-05-25T00:45:21.897Z,3.80
2019-05-25T00:50:26.207Z,2.63
2019-05-25T00:55:30.670Z,2.83
2019-05-25T01:00:35.008Z,2.60
2019-05-25T01:05:39.441Z,2.83
2019-05-25T01:10:43.986Z,3.23
2019-05-25T01:15:48.433Z,2.83
2019-05-25T01:20:52.647Z,2.50
2019-05-25T01:25:57.105Z,1.97
2019-05-25T01:31:01.476Z,1.90
2019-05-25T01:36:05.776Z,1.83
2019-05-25T01:41:10.312Z,2.30
2019-05-25T01:46:14.734Z,1.50
2019-05-25T01:51:19.075Z,2.57
2019-05-25T01:56:23.408Z,2.27
2019-05-25T02:01:27.963Z,2.70
2019-05-25T02:06:32.283Z,2.00
2019-05-25T02:11:36.619Z,2.10
2019-05-25T02:16:40.994Z,2.00
2019-05-25T02:21:46.311Z,1.90
2019-05-25T02:26:50.694Z,2.17
2019-05-25T02:31:55.409Z,2.67
2019-05-25T02:36:59.626Z,4.00
2019-05-25T02:42:04.351Z,4.50
2019-05-25T02:47:08.822Z,5.93
2019-05-25T02:52:13.244Z,3.50
2019-05-25T02:57:17.589Z,3.67
2019-05-25T03:02:21.915Z,3.40
2019-05-25T03:07:26.540Z,2.97
2019-05-25T03:12:31.205Z,2.93
2019-05-25T03:17:35.594Z,2.83
2019-05-25T03:22:39.999Z,3.00
2019-05-25T03:27:44.431Z,3.40
2019-05-25T03:32:48.849Z,3.07
2019-05-25T03:37:53.100Z,2.57
2019-05-25T03:42:58.040Z,2.73
2019-05-25T03:48:02.593Z,2.47
2019-05-25T03:53:06.923Z,3.17
2019-05-25T03:58:11.264Z,2.33
2019-05-25T04:03:15.695Z,2.20
2019-05-25T04:08:20.323Z,2.30
2019-05-25T04:13:24.567Z,3.10
2019-05-25T04:18:29.404Z,3.47
2019-05-25T04:23:34.654Z,2.60
2019-05-25T04:28:39.150Z,3.20
2019-05-25T04:33:43.429Z,3.03
2019-05-25T04:38:47.892Z,3.00
2019-05-25T04:43:53.336Z,2.50
2019-05-25T04:48:57.548Z,3.13
2019-05-25T04:54:02.207Z,2.20
2019-05-25T04:59:06.577Z,2.50
2019-05-25T05:04:10.984Z,2.80
2019-05-25T05:09:15.250Z,2.73
2019-05-25T05:14:19.509Z,2.37
2019-05-25T05:19:23.889Z,2.10
2019-05-25T05:24:28.224Z,2.60
2019-05-25T05:29:32.471Z,2.33
2019-05-25T05:34:36.806Z,3.10
2019-05-25T05:39:41.127Z,2.20
2019-05-25T05:44:46.485Z,2.90
2019-05-25T05:49:50.822Z,2.47
2019-05-25T05:54:56.695Z,2.67
2019-05-25T06:00:01.133Z,2.40
2019-05-25T06:05:05.677Z,2.53
2019-05-25T06:10:10.120Z,2.27
2019-05-25T06:15:14.556Z,2.20
2019-05-25T06:20:18.875Z,3.00
2019-05-25T06:25:23.216Z,2.60
2019-05-25T06:30:27.972Z,2.53
2019-05-25T06:35:32.259Z,2.57
2019-05-25T06:40:37.035Z,2.70
2019-05-25T06:45:41.374Z,2.67
2019-05-25T06:50:45.549Z,2.40
2019-05-25T06:55:50.556Z,2.17
2019-05-25T07:00:54.824Z,3.00
2019-05-25T07:05:59.234Z,2.37
2019-05-25T07:11:03.593Z,2.53
2019-05-25T07:16:07.897Z,2.30
2019-05-25T07:21:12.231Z,2.60
2019-05-25T07:26:17.186Z,2.47
2019-05-25T07:31:21.634Z,2.43
2019-05-25T07:36:25.954Z,2.47
2019-05-25T07:41:30.918Z,2.00
2019-05-25T07:46:35.237Z,2.47
2019-05-25T07:51:39.598Z,2.30
2019-05-25T07:56:43.823Z,2.50
2019-05-25T08:01:48.145Z,1.80
2019-05-25T08:06:52.499Z,2.20
2019-05-25T08:11:56.739Z,2.03
2019-05-25T08:17:00.978Z,2.40
2019-05-25T08:22:07.537Z,2.60
2019-05-25T08:27:11.985Z,1.83
2019-05-25T08:32:16.178Z,2.07
2019-05-25T08:37:20.760Z,2.03
2019-05-25T08:42:25.298Z,2.33
2019-05-25T08:47:29.726Z,2.30
2019-05-25T08:52:34.179Z,1.83
2019-05-25T08:57:38.627Z,2.53
2019-05-25T09:02:43.049Z,2.10
2019-05-25T09:07:47.486Z,2.27
2019-05-25T09:12:51.807Z,2.73
2019-05-25T09:17:56.458Z,2.67
2019-05-25T09:23:00.788Z,2.00
2019-05-25T09:28:05.370Z,2.60
2019-05-25T09:33:09.659Z,2.30
2019-05-25T09:38:13.941Z,2.97
2019-05-25T09:43:18.266Z,2.20
2019-05-25T09:48:23.165Z,2.50
2019-05-25T09:53:27.631Z,2.87
2019-05-25T09:58:31.865Z,2.13
2019-05-25T10:03:36.201Z,2.63
2019-05-25T10:08:40.363Z,2.37
2019-05-25T10:13:44.746Z,2.07
2019-05-25T10:18:50.626Z,2.37
2019-05-25T10:23:54.814Z,2.40
2019-05-25T10:28:59.061Z,2.90
2019-05-25T10:34:03.261Z,2.33
2019-05-25T10:39:08.082Z,2.10
2019-05-25T10:44:12.264Z,2.37
2019-05-25T10:49:16.606Z,2.27
2019-05-25T10:54:20.995Z,2.17
2019-05-25T10:59:25.527Z,1.73
2019-05-25T11:04:29.892Z,2.10
2019-05-25T11:09:34.284Z,2.20
2019-05-25T11:14:38.524Z,2.20
2019-05-25T11:19:42.860Z,2.00
2019-05-25T11:24:47.528Z,2.37
2019-05-25T11:30:07.570Z,2.10
2019-05-25T11:34:58.237Z,3.37
2019-05-25T11:40:02.567Z,2.10
2019-05-25T11:45:07.299Z,2.20
2019-05-25T11:50:13.427Z,2.77
2019-05-25T11:55:17.927Z,3.03
2019-05-25T12:00:25.392Z,2.80
2019-05-25T12:05:28.728Z,3.30
2019-05-25T12:10:33.173Z,2.00
2019-05-25T12:15:37.670Z,2.37
2019-05-25T12:20:42.148Z,2.60
2019-05-25T12:25:46.601Z,1.90
2019-05-25T12:30:51.223Z,2.50
2019-05-25T12:35:55.672Z,2.20
2019-05-25T12:41:00.223Z,2.40
2019-05-25T12:46:04.555Z,2.50
2019-05-25T12:51:10.839Z,2.37
2019-05-25T12:56:15.260Z,2.10
2019-05-25T13:01:19.608Z,2.67
2019-05-25T13:06:25.905Z,3.07
2019-05-25T13:11:30.116Z,3.30
2019-05-25T13:16:34.319Z,2.73
2019-05-25T13:21:38.538Z,2.90
2019-05-25T13:26:42.647Z,3.20
2019-05-25T13:31:46.835Z,2.73
2019-05-25T13:36:52.601Z,2.27
2019-05-25T13:41:57.361Z,2.43
2019-05-25T13:47:01.799Z,2.67
2019-05-25T13:52:06.128Z,2.70
2019-05-25T13:57:10.461Z,2.33
2019-05-25T14:02:15.014Z,2.27
2019-05-25T14:07:19.355Z,2.67
2019-05-25T14:12:23.660Z,2.53
2019-05-25T14:17:27.996Z,2.20
2019-05-25T14:22:32.198Z,2.13
2019-05-25T14:27:36.692Z,2.20
2019-05-25T14:32:41.014Z,3.30
2019-05-25T14:37:45.354Z,2.10
2019-05-25T14:42:49.690Z,2.73
2019-05-25T14:47:54.155Z,2.40
2019-05-25T14:52:58.722Z,2.30
2019-05-25T14:58:03.244Z,1.97
2019-05-25T15:03:07.637Z,2.63
2019-05-25T15:08:12.289Z,2.37
2019-05-25T15:13:16.581Z,2.10
2019-05-25T15:18:21.370Z,2.50
2019-05-25T15:23:25.800Z,2.90
2019-05-25T15:28:30.147Z,2.10
2019-05-25T15:33:34.497Z,2.80
2019-05-25T15:38:38.732Z,2.00
2019-05-25T15:43:43.154Z,1.80
2019-05-25T15:48:47.533Z,1.70
2019-05-25T15:53:51.821Z,2.20
2019-05-25T15:58:56.243Z,2.00
2019-05-25T16:04:00.605Z,1.97
2019-05-25T16:09:06.063Z,1.80
2019-05-25T16:14:10.266Z,2.07
2019-05-25T16:19:14.605Z,2.57
2019-05-25T16:24:19.880Z,2.30
2019-05-25T16:29:24.203Z,3.00
2019-05-25T16:34:28.442Z,2.37
2019-05-25T16:39:32.869Z,2.23
2019-05-25T16:44:37.144Z,2.40
2019-05-25T16:49:41.536Z,2.00
2019-05-25T16:54:46.095Z,2.57
2019-05-25T16:59:50.548Z,2.40
2019-05-25T17:04:54.850Z,2.23
2019-05-25T17:09:59.408Z,2.10
2019-05-25T17:15:05.082Z,1.93
2019-05-25T17:20:09.445Z,2.63
2019-05-25T17:25:14.773Z,1.97
2019-05-25T17:30:20.741Z,2.00
2019-05-25T17:35:25.168Z,3.13
2019-05-25T17:40:29.523Z,2.47
2019-05-25T17:45:33.724Z,2.30
2019-05-25T17:50:38.388Z,2.10
2019-05-25T17:55:42.618Z,2.77
2019-05-25T18:00:48.756Z,2.20
2019-05-25T18:05:54.159Z,2.83
2019-05-25T18:10:58.628Z,2.63
2019-05-25T18:16:03.073Z,2.17
2019-05-25T18:21:07.671Z,2.23
2019-05-25T18:26:12.231Z,2.63
2019-05-25T18:31:16.659Z,1.93
2019-05-25T18:36:22.630Z,2.87
2019-05-25T18:41:26.957Z,2.37
2019-05-25T18:46:31.317Z,2.27
2019-05-25T18:51:35.746Z,2.03
2019-05-25T18:56:40.168Z,2.40
2019-05-25T19:01:44.601Z,2.83
2019-05-25T19:06:48.841Z,2.00
2019-05-25T19:11:53.168Z,2.63
2019-05-25T19:16:57.722Z,2.80
2019-05-25T19:22:02.058Z,3.30
2019-05-25T19:27:06.388Z,3.20
2019-05-25T19:32:10.866Z,3.43
2019-05-25T19:37:19.169Z,3.30
2019-05-25T19:42:21.233Z,2.70
2019-05-25T19:47:25.685Z,2.70
2019-05-25T19:52:29.924Z,2.60
2019-05-25T19:57:34.293Z,2.33
2019-05-25T20:02:38.572Z,2.87
2019-05-25T20:07:43.031Z,3.00
2019-05-25T20:12:47.403Z,3.53
2019-05-25T20:17:51.793Z,3.03
2019-05-25T20:22:57.147Z,2.90
2019-05-25T20:28:01.390Z,3.27
2019-05-25T20:33:05.711Z,3.40
2019-05-25T20:38:11.210Z,2.93
2019-05-25T20:43:15.712Z,2.50
2019-05-25T20:48:20.262Z,3.17
2019-05-25T20:53:24.829Z,3.50
2019-05-25T20:58:29.170Z,3.80
2019-05-25T21:03:33.583Z,4.07
2019-05-25T21:08:38.203Z,3.53
2019-05-25T21:13:42.551Z,3.53
2019-05-25T21:18:47.095Z,3.90
2019-05-25T21:23:51.322Z,3.87
2019-05-25T21:28:55.974Z,3.60
2019-05-25T21:34:00.324Z,3.87
2019-05-25T21:39:06.092Z,3.83
2019-05-25T21:44:10.543Z,5.13
2019-05-25T21:49:15.857Z,4.50
2019-05-25T21:54:21.435Z,4.13
2019-05-25T21:59:25.655Z,4.50
2019-05-25T22:04:30.010Z,4.30
2019-05-25T22:09:34.365Z,3.97
2019-05-25T22:14:38.656Z,4.17
2019-05-25T22:19:43.509Z,4.40
2019-05-25T22:24:47.858Z,4.43
2019-05-25T22:29:52.205Z,5.93
2019-05-25T22:34:56.558Z,4.80
2019-05-25T22:40:00.948Z,5.63
2019-05-25T22:45:09.383Z,5.50
2019-05-25T22:50:14.475Z,5.33
2019-05-25T22:55:18.721Z,5.63
2019-05-25T23:00:23.204Z,6.23
2019-05-25T23:05:27.438Z,5.30
2019-05-25T23:10:31.676Z,5.40
2019-05-25T23:15:36.108Z,5.00
2019-05-25T23:20:40.564Z,5.73
2019-05-25T23:25:44.754Z,5.93
2019-05-25T23:30:49.019Z,5.97
2019-05-25T23:35:53.451Z,6.00
2019-05-25T23:40:57.783Z,5.37
2019-05-25T23:46:02.116Z,5.87
2019-05-25T23:51:06.357Z,4.87
2019-05-25T23:56:10.688Z,5.47
